Meteo Giornale » Osservazioni meteo Stati Uniti (USA) » La Grande
ore: 19:56 - Osservazioni Meteo La Grande
Lat. 45° 17' N Lon. 118° 0' W Alt. 827 metri s.l.m.
21 °C
Sereno
Temp. 24 Ore
4 °C
31 °C
Est/Sud-Est
7.4 Km/h
Dew point 2 °C
Umidità 28 %
Visibilità 10 Km
Il sole sorge alle ore 06:12
Il sole tramonta alle ore 19:31
| Data e Ora | Cielo e Fenomeni | T °C | DP °C | Um. % | Pres. hPa | Vis. km | Vento km/h | |
|---|---|---|---|---|---|---|---|---|
| Oggi h: 19:56 | Sereno | 21 | 2 | 28 | 1009 | 10 | E/SE 7.4 | |
| Oggi h: 18:56 | Sereno | 26 | -1 | 16 | 1009 | 10 | SE 11.1 | |
| Oggi h: 17:56 | Sereno | 30 | -2 | 12 | 1009 | 10 | SE 22.2 | |
| Oggi h: 16:56 | Sereno | 30 | -2 | 12 | 1010 | 10 | SE 16.7 | |
| Oggi h: 15:56 | Sereno | 31 | -2 | 11 | 1011 | 10 | SE 16.7 | |
| Oggi h: 14:56 | Sereno | 31 | -3 | 10 | 1011 | 10 | E/SE 20.3 | |
| Oggi h: 13:56 | Sereno | 29 | -1 | 14 | 1012 | 14 | E/SE 16.7 | |
| Oggi h: 12:56 | Sereno | 27 | 2 | 19 | 1014 | 14 | E 9.3 | |
| Oggi h: 11:56 | Sereno | 23 | 3 | 26 | 1015 | 10 | N 7.4 | |
| Oggi h: 10:56 | Sereno | 18 | 3 | 36 | 1016 | 10 | E 7.4 | |
| Oggi h: 09:56 | Sereno | 15 | 2 | 41 | 1017 | 10 | N 0 | |
| Oggi h: 08:56 | Sereno | 12 | 2 | 50 | 1017 | 10 | N 5.5 | |
| Oggi h: 07:56 | Sereno | 9 | 1 | 57 | 1018 | 10 | N 0 | |
| Oggi h: 06:56 | Sereno | 5 | -1 | 65 | 1017 | 10 | N 0 | |
| Oggi h: 06:16 | Foschia | 4 | 0 | 75 | 1017 | 5 | N 0 | |
| Oggi h: 06:03 | Foschia | 5 | 0 | 70 | 1017 | 5 | N 0 | |
| Oggi h: 05:56 | Sereno | 6 | 1 | 70 | 1017 | 14 | N 0 | |
| Oggi h: 04:56 | Sereno | 6 | -1 | 60 | 1017 | 10 | N 0 | |
| Oggi h: 03:56 | Sereno | 7 | 1 | 65 | 1017 | 10 | N 5.5 | |
| Oggi h: 02:56 | Sereno | 8 | 1 | 61 | 1017 | 10 | N 0 | |
| Oggi h: 01:56 | Sereno | 9 | 1 | 57 | 1017 | 10 | N 0 | |
| Oggi h: 00:56 | Sereno | 10 | 1 | 53 | 1017 | 10 | N 0 | |
| Ieri h: 23:56 | Sereno | 13 | 1 | 43 | 1017 | 10 | S/SE 7.4 | |
| Ieri h: 22:56 | Sereno | 13 | 1 | 43 | 1017 | 10 | N 5.5 | |
| Ieri h: 21:56 | Sereno | 17 | 2 | 36 | 1017 | 10 | N/NO 13 | |
| Ieri h: 20:56 | Sereno | 15 | 2 | 41 | 1017 | 10 | N/NO 11.1 | |



